SondeTracker

Meteorological Radiosondes Database

Operations

Sounding was ended - last measurement: 2022-12-07 01:18:35z

MAP
About Radiosonde

Number: D22041554 (22041554)

Launch Site: Chanhassen [MN] (US)

Type: DFM17

AUX: NO

Frequency: 403.610 MHz

Max Speed: 237 km/h at 10776 m

Average Speed: 132.88 km/h

Max Altitude: 31811 m

Average Ascent Speed: 5.69 m/s

Average Descent Speed: 13.95 m/s

Status: UNKNOWN

Status Changes
Launch Site Type AUX Frequency Status Finder Landing Point Description Changes made by
APRS Statistics

Received Frames: 361

First Frame [UTC]: 2022-12-06 23:14:54z

Last Frame [UTC]: 2022-12-07 01:18:35z

Receivers: kc9nik, KE0YJJ

Flight Time: 02:03:41 h

Distance From First Measurement: 263.13 km

Nearest City: Wausau [WI] (US) [61.02 km]

Nearest Hunter: [0.00 km]

Ground Altitude: 490 m

Distance from QTH: 0.00 km

APRS Data
Receiver Number Date/Time [UTC] φ λ Course [°] Speed [km/h] Altitude [m] Description
KE0YJJD220415542022-12-07 01:18:3545.2947-90.264584803417Clb=-6.9m/s t=-16.1C h=-1.0% p=-1.0hPa 403.610 MHz Type=DFM17 ser=22041554 Radiosonde
KE0YJJD220415542022-12-07 01:18:0445.2943-90.268481803514Clb=-7.0m/s t=-16.6C h=-1.0% p=-1.0hPa 403.610 MHz Type=DFM17 ser=22041554 Radiosonde
KE0YJJD220415542022-12-07 01:17:3345.2936-90.275281853676Clb=-7.3m/s t=-17.9C h=-1.0% p=-1.0hPa 403.610 MHz Type=DFM17 ser=22041554 Radiosonde
KE0YJJD220415542022-12-07 01:17:0245.2922-90.284371853894Clb=-7.1m/s t=-18.8C h=-1.0% p=-1.0hPa 403.610 MHz Type=DFM17 ser=22041554 Radiosonde
KE0YJJD220415542022-12-07 01:16:3145.2897-90.294571984129Clb=-7.1m/s t=-19.8C h=-1.0% p=-1.0hPa 403.610 MHz Type=DFM17 ser=22041554 Radiosonde
KE0YJJD220415542022-12-07 01:15:5945.2877-90.3049741064341Clb=-7.2m/s t=-20.3C h=-1.0% p=-1.0hPa 403.610 MHz Type=DFM17 ser=22041554 Radiosonde
KE0YJJD220415542022-12-07 01:15:3345.2852-90.316711074557Clb=-6.9m/s t=-22.0C h=-1.0% p=-1.0hPa 403.610 MHz Type=DFM17 ser=22041554 Radiosonde
KE0YJJD220415542022-12-07 01:15:0845.2827-90.3273691094774Clb=-7.1m/s t=-23.1C h=-1.0% p=-1.0hPa 403.610 MHz Type=DFM17 ser=22041554 Radiosonde
KE0YJJD220415542022-12-07 01:14:4245.2794-90.3384651074997Clb=-7.4m/s t=-24.1C h=-1.0% p=-1.0hPa 403.610 MHz Type=DFM17 ser=22041554 Radiosonde
KE0YJJD220415542022-12-07 01:14:1645.2759-90.3498671095236Clb=-7.3m/s t=-25.9C h=-1.0% p=-1.0hPa 403.610 MHz Type=DFM17 ser=22041554 Radiosonde
KE0YJJD220415542022-12-07 01:13:4745.2729-90.3609711135463Clb=-7.5m/s t=-27.4C h=-1.0% p=-1.0hPa 403.610 MHz Type=DFM17 ser=22041554 Radiosonde
KE0YJJD220415542022-12-07 01:13:1945.2705-90.373751135708Clb=-7.9m/s t=-29.3C h=-1.0% p=-1.0hPa 403.610 MHz Type=DFM17 ser=22041554 Radiosonde
KE0YJJD220415542022-12-07 01:12:4945.2686-90.3855801195961Clb=-8.3m/s t=-31.4C h=-1.0% p=-1.0hPa 403.610 MHz Type=DFM17 ser=22041554 Radiosonde
KE0YJJD220415542022-12-07 01:12:1945.267-90.3984781176222Clb=-8.3m/s t=-33.5C h=-1.0% p=-1.0hPa 403.610 MHz Type=DFM17 ser=22041554 Radiosonde
KE0YJJD220415542022-12-07 01:11:4845.2649-90.4116761206487Clb=-8.1m/s t=-35.5C h=-1.0% p=-1.0hPa 403.610 MHz Type=DFM17 ser=22041554 Radiosonde
KE0YJJD220415542022-12-07 01:11:1745.2627-90.424731206739Clb=-8.4m/s t=-37.1C h=-1.0% p=-1.0hPa 403.610 MHz Type=DFM17 ser=22041554 Radiosonde
KE0YJJD220415542022-12-07 01:10:4745.26-90.4367731196999Clb=-8.4m/s t=-39.1C h=-1.0% p=-1.0hPa 403.610 MHz Type=DFM17 ser=22041554 Radiosonde
KE0YJJD220415542022-12-07 01:10:1745.2573-90.4493751197266Clb=-8.8m/s t=-41.0C h=-1.0% p=-1.0hPa 403.610 MHz Type=DFM17 ser=22041554 Radiosonde
KE0YJJD220415542022-12-07 01:09:4445.2549-90.4623751247540Clb=-8.8m/s t=-43.3C h=-1.0% p=-1.0hPa 403.610 MHz Type=DFM17 ser=22041554 Radiosonde
KE0YJJD220415542022-12-07 01:09:1045.2523-90.477771377832Clb=-8.9m/s t=-45.2C h=-1.0% p=-1.0hPa 403.610 MHz Type=DFM17 ser=22041554 Radiosonde
KE0YJJD220415542022-12-07 01:08:3845.2503-90.491791398093Clb=-9.2m/s t=-47.3C h=-1.0% p=-1.0hPa 403.610 MHz Type=DFM17 ser=22041554 Radiosonde
KE0YJJD220415542022-12-07 01:08:0745.2485-90.5069801398389Clb=-9.3m/s t=-48.6C h=-1.0% p=-1.0hPa 403.610 MHz Type=DFM17 ser=22041554 Radiosonde
KE0YJJD220415542022-12-07 01:07:3345.2462-90.522741438682Clb=-9.3m/s t=-50.2C h=-1.0% p=-1.0hPa 403.610 MHz Type=DFM17 ser=22041554 Radiosonde
KE0YJJD220415542022-12-07 01:06:5845.243-90.5377741448982Clb=-9.3m/s t=-52.8C h=-1.0% p=-1.0hPa 403.610 MHz Type=DFM17 ser=22041554 Radiosonde
KE0YJJD220415542022-12-07 01:06:2445.2403-90.5531761619269Clb=-9.6m/s t=-54.5C h=-1.0% p=-1.0hPa 403.610 MHz Type=DFM17 ser=22041554 Radiosonde
KE0YJJD220415542022-12-07 01:05:4945.2373-90.5716751819569Clb=-9.7m/s t=-54.0C h=-1.0% p=-1.0hPa 403.610 MHz Type=DFM17 ser=22041554 Radiosonde
KE0YJJD220415542022-12-07 01:05:1545.2333-90.5915732009875Clb=-9.6m/s t=-54.7C h=-1.0% p=-1.0hPa 403.610 MHz Type=DFM17 ser=22041554 Radiosonde
KE0YJJD220415542022-12-07 01:04:4145.2288-90.61337322010183Clb=-10.1m/s t=-54.4C h=-1.0% p=-1.0hPa 403.610 MHz Type=DFM17 ser=22041554 Radiosonde
KE0YJJD220415542022-12-07 01:04:0645.2239-90.6387623210514Clb=-10.3m/s t=-55.6C h=-1.0% p=-1.0hPa 403.610 MHz Type=DFM17 ser=22041554 Radiosonde
KE0YJJD220415542022-12-07 01:03:3445.2201-90.66167822410832Clb=-10.6m/s t=-56.0C h=-1.0% p=-1.0hPa 403.610 MHz Type=DFM17 ser=22041554 Radiosonde
KE0YJJD220415542022-12-07 01:03:0345.2165-90.68497521511169Clb=-10.9m/s t=-55.6C h=-1.0% p=-1.0hPa 403.610 MHz Type=DFM17 ser=22041554 Radiosonde
KE0YJJD220415542022-12-07 01:02:3345.2125-90.70837721111516Clb=-11.4m/s t=-54.8C h=-1.0% p=-1.0hPa 403.610 MHz Type=DFM17 ser=22041554 Radiosonde
KE0YJJD220415542022-12-07 01:02:0145.2089-90.73138020911873Clb=-11.6m/s t=-53.6C h=-1.0% p=-1.0hPa 403.610 MHz Type=DFM17 ser=22041554 Radiosonde
KE0YJJD220415542022-12-07 01:01:3145.2068-90.7548220712237Clb=-12.0m/s t=-54.2C h=-1.0% p=-1.0hPa 403.610 MHz Type=DFM17 ser=22041554 Radiosonde
KE0YJJD220415542022-12-07 01:00:5945.205-90.7768520412610Clb=-12.1m/s t=-54.5C h=-1.0% p=-1.0hPa 403.610 MHz Type=DFM17 ser=22041554 Radiosonde
KE0YJJD220415542022-12-07 01:00:5345.2037-90.79778218912992Clb=-12.6m/s t=-54.4C h=-1.0% p=-1.0hPa 403.610 MHz Type=DFM17 ser=22041554 Radiosonde
KE0YJJD220415542022-12-07 01:00:5245.2019-90.81868317613398Clb=-12.9m/s t=-55.4C h=-1.0% p=-1.0hPa 403.610 MHz Type=DFM17 ser=22041554 Radiosonde
KE0YJJD220415542022-12-07 01:00:5045.1999-90.8377817413794Clb=-12.9m/s t=-56.4C h=-1.0% p=-1.0hPa 403.610 MHz Type=DFM17 ser=22041554 Radiosonde
KE0YJJD220415542022-12-07 01:00:4945.1963-90.85527116114216Clb=-13.3m/s t=-57.1C h=-1.0% p=-1.0hPa 403.610 MHz Type=DFM17 ser=22041554 Radiosonde
KE0YJJD220415542022-12-07 01:00:4745.1928-90.87287516914641Clb=-13.5m/s t=-57.4C h=-1.0% p=-1.0hPa 403.610 MHz Type=DFM17 ser=22041554 Radiosonde
KE0YJJD220415542022-12-07 01:00:3945.1898-90.89038115215086Clb=-14.7m/s t=-57.7C h=-1.0% p=-1.0hPa 403.610 MHz Type=DFM17 ser=22041554 Radiosonde
KE0YJJD220415542022-12-07 01:00:3245.1867-90.90617114815548Clb=-15.5m/s t=-58.2C h=-1.0% p=-1.0hPa 403.610 MHz Type=DFM17 ser=22041554 Radiosonde
KE0YJJD220415542022-12-07 01:00:2145.1838-90.92157313916010Clb=-14.6m/s t=-58.9C h=-1.0% p=-1.0hPa 403.610 MHz Type=DFM17 ser=22041554 Radiosonde
KE0YJJD220415542022-12-07 01:00:2045.1803-90.93576714316466Clb=-14.6m/s t=-61.3C h=-1.0% p=-1.0hPa 403.610 MHz Type=DFM17 ser=22041554 Radiosonde
KE0YJJD220415542022-12-07 01:00:1945.176-90.95087014816941Clb=-15.6m/s t=-63.1C h=-1.0% p=-1.0hPa 403.610 MHz Type=DFM17 ser=22041554 Radiosonde
KE0YJJD220415542022-12-07 01:00:0845.1715-90.9676916317459Clb=-17.2m/s t=-62.6C h=-1.0% p=-1.0hPa 403.610 MHz Type=DFM17 ser=22041554 Radiosonde
KE0YJJD220415542022-12-07 00:59:3145.1693-90.98358715617985Clb=-17.9m/s t=-60.6C h=-1.0% p=-1.0hPa 403.610 MHz Type=DFM17 ser=22041554 Radiosonde
KE0YJJD220415542022-12-07 00:58:4845.1692-90.9998712418551Clb=-17.3m/s t=-58.9C h=-1.0% p=-1.0hPa 403.610 MHz Type=DFM17 ser=22041554 Radiosonde
KE0YJJD220415542022-12-07 00:58:0645.1682-91.0107829319122Clb=-18.9m/s t=-59.5C h=-1.0% p=-1.0hPa 403.610 MHz Type=DFM17 ser=22041554 Radiosonde
KE0YJJD220415542022-12-07 00:57:2545.1669-91.0198878119716Clb=-18.4m/s t=-60.7C h=-1.0% p=-1.0hPa 403.610 MHz Type=DFM17 ser=22041554 Radiosonde
kc9nikD220415542022-12-07 00:56:4845.167-91.0274796720267Clb=-20.0m/s t=-61.9C h=-1.0% p=-1.0hPa 403.610 MHz Type=DFM17 ser=22041554 Radiosonde
KE0YJJD220415542022-12-07 00:56:4345.1669-91.0283767220347Clb=-19.8m/s t=-62.3C h=-1.0% p=-1.0hPa 403.610 MHz Type=DFM17 ser=22041554 Radiosonde
KE0YJJD220415542022-12-07 00:56:0145.1639-91.03796711320942Clb=-21.2m/s t=-59.1C h=-1.0% p=-1.0hPa 403.610 MHz Type=DFM17 ser=22041554 Radiosonde
KE0YJJD220415542022-12-07 00:55:1945.1617-91.0495817821566Clb=-15.8m/s t=-59.8C h=-1.0% p=-1.0hPa 403.610 MHz Type=DFM17 ser=22041554 Radiosonde
kc9nikD220415542022-12-07 00:54:4345.1615-91.0568938522126Clb=-19.3m/s t=-60.1C h=-1.0% p=-1.0hPa 403.610 MHz Type=DFM17 ser=22041554 Radiosonde
KE0YJJD220415542022-12-07 00:54:3745.1615-91.0577948122189Clb=-20.1m/s t=-59.9C h=-1.0% p=-1.0hPa 403.610 MHz Type=DFM17 ser=22041554 Radiosonde
kc9nikD220415542022-12-07 00:53:5945.1604-91.0654729322798Clb=-22.4m/s t=-60.8C h=-1.0% p=-1.0hPa 403.610 MHz Type=DFM17 ser=22041554 Radiosonde
KE0YJJD220415542022-12-07 00:53:5445.1602-91.0664779122870Clb=-23.7m/s t=-60.7C h=-1.0% p=-1.0hPa 403.610 MHz Type=DFM17 ser=22041554 Radiosonde
kc9nikD220415542022-12-07 00:53:1545.1603-91.0753958023544Clb=-21.1m/s t=-61.0C h=-1.0% p=-1.0hPa 403.610 MHz Type=DFM17 ser=22041554 Radiosonde
KE0YJJD220415542022-12-07 00:53:1045.1604-91.0765978523633Clb=-24.7m/s t=-60.8C h=-1.0% p=-1.0hPa 403.610 MHz Type=DFM17 ser=22041554 Radiosonde
kc9nikD220415542022-12-07 00:52:3145.1605-91.0842626524279Clb=-22.7m/s t=-58.3C h=-1.0% p=-1.0hPa 403.610 MHz Type=DFM17 ser=22041554 Radiosonde
KE0YJJD220415542022-12-07 00:52:2445.1603-91.0847657424326Clb=-24.0m/s t=-58.5C h=-1.0% p=-1.0hPa 403.610 MHz Type=DFM17 ser=22041554 Radiosonde
kc9nikD220415542022-12-07 00:51:4245.1578-91.09167110024994Clb=-25.4m/s t=-59.5C h=-1.0% p=-1.0hPa 403.610 MHz Type=DFM17 ser=22041554 Radiosonde
KE0YJJD220415542022-12-07 00:51:3745.1576-91.0925769425068Clb=-22.0m/s t=-59.1C h=-1.0% p=-1.0hPa 403.610 MHz Type=DFM17 ser=22041554 Radiosonde
kc9nikD220415542022-12-07 00:50:5745.1566-91.1006949425664Clb=-22.2m/s t=-59.0C h=-1.0% p=-1.0hPa 403.610 MHz Type=DFM17 ser=22041554 Radiosonde
KE0YJJD220415542022-12-07 00:50:5145.1567-91.10161049325730Clb=-22.0m/s t=-58.7C h=-1.0% p=-1.0hPa 403.610 MHz Type=DFM17 ser=22041554 Radiosonde
KE0YJJD220415542022-12-07 00:50:0545.156-91.1105617826505Clb=-27.7m/s t=-60.2C h=-1.0% p=-1.0hPa 403.610 MHz Type=DFM17 ser=22041554 Radiosonde
KE0YJJD220415542022-12-07 00:49:2045.1548-91.1195928727228Clb=-24.6m/s t=-59.6C h=-1.0% p=-1.0hPa 403.610 MHz Type=DFM17 ser=22041554 Radiosonde
kc9nikD220415542022-12-07 00:48:3945.155-91.1275777227925Clb=-27.1m/s t=-58.9C h=-1.0% p=-1.0hPa 403.610 MHz Type=DFM17 ser=22041554 Radiosonde
KE0YJJD220415542022-12-07 00:48:3445.1549-91.1283699428006Clb=-25.4m/s t=-58.7C h=-1.0% p=-1.0hPa 403.610 MHz Type=DFM17 ser=22041554 Radiosonde
kc9nikD220415542022-12-07 00:47:5245.1528-91.13768611328695Clb=-28.4m/s t=-59.9C h=-1.0% p=-1.0hPa 403.610 MHz Type=DFM17 ser=22041554 Radiosonde
KE0YJJD220415542022-12-07 00:47:4645.1527-91.13938711728802Clb=-26.0m/s t=-60.1C h=-1.0% p=-1.0hPa 403.610 MHz Type=DFM17 ser=22041554 Radiosonde
kc9nikD220415542022-12-07 00:47:0345.1536-91.14929910929535Clb=-24.3m/s t=-59.9C h=-1.0% p=-1.0hPa 403.610 MHz Type=DFM17 ser=22041554 Radiosonde
KE0YJJD220415542022-12-07 00:46:5545.1536-91.15078510229639Clb=-25.9m/s t=-59.7C h=-1.0% p=-1.0hPa 403.610 MHz Type=DFM17 ser=22041554 Radiosonde
kc9nikD220415542022-12-07 00:46:1445.1528-91.1618213130438Clb=-25.9m/s t=-56.4C h=-1.0% p=-1.0hPa 403.610 MHz Type=DFM17 ser=22041554 Radiosonde
KE0YJJD220415542022-12-07 00:46:0845.1526-91.16328712630565Clb=-29.0m/s t=-55.6C h=-1.0% p=-1.0hPa 403.610 MHz Type=DFM17 ser=22041554 Radiosonde
kc9nikD220415542022-12-07 00:45:2645.1525-91.17678313331207Clb=-18.1m/s t=-55.7C h=-1.0% p=-1.0hPa 403.610 MHz Type=DFM17 ser=22041554 Radiosonde
KE0YJJD220415542022-12-07 00:45:2045.1523-91.17888418131283Clb=-13.5m/s t=-55.6C h=-1.0% p=-1.0hPa 403.610 MHz Type=DFM17 ser=22041554 Radiosonde
kc9nikD220415542022-12-07 00:44:4045.1504-91.19428319631811Clb=6.3m/s t=-56.1C h=-1.0% p=-1.0hPa 403.610 MHz Type=DFM17 ser=22041554 Radiosonde
KE0YJJD220415542022-12-07 00:44:3545.1505-91.19599511531789Clb=3.1m/s t=-56.1C h=-1.0% p=-1.0hPa 403.610 MHz Type=DFM17 ser=22041554 Radiosonde
kc9nikD220415542022-12-07 00:43:5745.1481-91.21097320231599Clb=1.5m/s t=-56.1C h=-1.0% p=-1.0hPa 403.610 MHz Type=DFM17 ser=22041554 Radiosonde
KE0YJJD220415542022-12-07 00:43:5445.148-91.21318110931573Clb=0.5m/s t=-56.0C h=-1.0% p=-1.0hPa 403.610 MHz Type=DFM17 ser=22041554 Radiosonde
kc9nikD220415542022-12-07 00:43:2645.1458-91.22797119331404Clb=7.5m/s t=-55.7C h=-1.0% p=-1.0hPa 403.610 MHz Type=DFM17 ser=22041554 Radiosonde
KE0YJJD220415542022-12-07 00:43:2345.1455-91.23127712631371Clb=1.1m/s t=-55.7C h=-1.0% p=-1.0hPa 403.610 MHz Type=DFM17 ser=22041554 Radiosonde
kc9nikD220415542022-12-07 00:42:5645.1447-91.24477913331226Clb=4.2m/s t=-55.9C h=-1.0% p=-1.0hPa 403.610 MHz Type=DFM17 ser=22041554 Radiosonde
KE0YJJD220415542022-12-07 00:42:5245.1445-91.24658719631203Clb=0.1m/s t=-55.8C h=-1.0% p=-1.0hPa 403.610 MHz Type=DFM17 ser=22041554 Radiosonde
kc9nikD220415542022-12-07 00:42:2745.1444-91.26168110631022Clb=2.0m/s t=-55.7C h=-1.0% p=-1.0hPa 403.610 MHz Type=DFM17 ser=22041554 Radiosonde
KE0YJJD220415542022-12-07 00:42:2345.1442-91.26318618131001Clb=9.6m/s t=-55.8C h=-1.0% p=-1.0hPa 403.610 MHz Type=DFM17 ser=22041554 Radiosonde
kc9nikD220415542022-12-07 00:41:5745.1443-91.27669815030819Clb=4.0m/s t=-55.6C h=-1.0% p=-1.0hPa 403.610 MHz Type=DFM17 ser=22041554 Radiosonde
kc9nikD220415542022-12-07 00:41:5545.144-91.29028515230590Clb=10.1m/s t=-55.1C h=-1.0% p=-1.0hPa 403.610 MHz Type=DFM17 ser=22041554 Radiosonde
kc9nikD220415542022-12-07 00:41:4945.1428-91.30346515730346Clb=2.4m/s t=-56.4C h=-1.0% p=-1.0hPa 403.610 MHz Type=DFM17 ser=22041554 Radiosonde
KE0YJJD220415542022-12-07 00:41:4845.1427-91.3055747230308Clb=6.6m/s t=-56.8C h=-1.0% p=-1.0hPa 403.610 MHz Type=DFM17 ser=22041554 Radiosonde
kc9nikD220415542022-12-07 00:41:4145.141-91.31556812030108Clb=2.3m/s t=-57.5C h=-1.0% p=-1.0hPa 403.610 MHz Type=DFM17 ser=22041554 Radiosonde
KE0YJJD220415542022-12-07 00:41:4045.141-91.31710211330074Clb=4.4m/s t=-57.4C h=-1.0% p=-1.0hPa 403.610 MHz Type=DFM17 ser=22041554 Radiosonde
kc9nikD220415542022-12-07 00:41:3445.1407-91.3276810429868Clb=1.2m/s t=-57.5C h=-1.0% p=-1.0hPa 403.610 MHz Type=DFM17 ser=22041554 Radiosonde
KE0YJJD220415542022-12-07 00:41:3345.1406-91.328110410729848Clb=11.5m/s t=-57.6C h=-1.0% p=-1.0hPa 403.610 MHz Type=DFM17 ser=22041554 Radiosonde
kc9nikD220415542022-12-07 00:41:3245.1407-91.33857412829649Clb=7.3m/s t=-58.3C h=-1.0% p=-1.0hPa 403.610 MHz Type=DFM17 ser=22041554 Radiosonde
kc9nikD220415542022-12-07 00:41:3045.1409-91.350510310629451Clb=4.7m/s t=-59.3C h=-1.0% p=-1.0hPa 403.610 MHz Type=DFM17 ser=22041554 Radiosonde
kc9nikD220415542022-12-07 00:41:2845.1421-91.36428310429250Clb=1.9m/s t=-60.0C h=-1.0% p=-1.0hPa 403.610 MHz Type=DFM17 ser=22041554 Radiosonde
kc9nikD220415542022-12-07 00:41:2645.1436-91.374610710729087Clb=1.3m/s t=-60.2C h=-1.0% p=-1.0hPa 403.610 MHz Type=DFM17 ser=22041554 Radiosonde
kc9nikD220415542022-12-07 00:41:2545.1445-91.387811212228905Clb=4.5m/s t=-60.5C h=-1.0% p=-1.0hPa 403.610 MHz Type=DFM17 ser=22041554 Radiosonde
kc9nikD220415542022-12-07 00:41:2345.1442-91.40138711928715Clb=5.4m/s t=-59.9C h=-1.0% p=-1.0hPa 403.610 MHz Type=DFM17 ser=22041554 Radiosonde
kc9nikD220415542022-12-07 00:41:1845.1425-91.41395710228475Clb=6.4m/s t=-60.1C h=-1.0% p=-1.0hPa 403.610 MHz Type=DFM17 ser=22041554 Radiosonde
KE0YJJD220415542022-12-07 00:41:1445.1423-91.41467210028466Clb=9.3m/s t=-60.1C h=-1.0% p=-1.0hPa 403.610 MHz Type=DFM17 ser=22041554 Radiosonde
kc9nikD220415542022-12-07 00:40:3545.1406-91.42486310628257Clb=7.0m/s t=-59.6C h=-1.0% p=-1.0hPa 403.610 MHz Type=DFM17 ser=22041554 Radiosonde
KE0YJJD220415542022-12-07 00:40:3045.1403-91.42587510628237Clb=9.2m/s t=-59.4C h=-1.0% p=-1.0hPa 403.610 MHz Type=DFM17 ser=22041554 Radiosonde
kc9nikD220415542022-12-07 00:39:4745.1383-91.4348698028029Clb=6.5m/s t=-59.8C h=-1.0% p=-1.0hPa 403.610 MHz Type=DFM17 ser=22041554 Radiosonde
KE0YJJD220415542022-12-07 00:39:4245.1382-91.4356887628004Clb=5.7m/s t=-59.8C h=-1.0% p=-1.0hPa 403.610 MHz Type=DFM17 ser=22041554 Radiosonde
kc9nikD220415542022-12-07 00:39:0145.1376-91.4432817427817Clb=9.0m/s t=-59.3C h=-1.0% p=-1.0hPa 403.610 MHz Type=DFM17 ser=22041554 Radiosonde
KE0YJJD220415542022-12-07 00:38:5645.1376-91.4443897627784Clb=8.6m/s t=-59.3C h=-1.0% p=-1.0hPa 403.610 MHz Type=DFM17 ser=22041554 Radiosonde
kc9nikD220415542022-12-07 00:38:1345.1381-91.45211067827599Clb=7.3m/s t=-60.1C h=-1.0% p=-1.0hPa 403.610 MHz Type=DFM17 ser=22041554 Radiosonde
KE0YJJD220415542022-12-07 00:38:0745.1383-91.45431158727553Clb=-0.4m/s t=-60.0C h=-1.0% p=-1.0hPa 403.610 MHz Type=DFM17 ser=22041554 Radiosonde
KE0YJJD220415542022-12-07 00:37:1545.1389-91.4633937227371Clb=6.8m/s t=-60.5C h=-1.0% p=-1.0hPa 403.610 MHz Type=DFM17 ser=22041554 Radiosonde
kc9nikD220415542022-12-07 00:36:2945.1384-91.472838027192Clb=5.7m/s t=-59.4C h=-1.0% p=-1.0hPa 403.610 MHz Type=DFM17 ser=22041554 Radiosonde
KE0YJJD220415542022-12-07 00:36:2345.1384-91.47348511927167Clb=6.0m/s t=-59.3C h=-1.0% p=-1.0hPa 403.610 MHz Type=DFM17 ser=22041554 Radiosonde
kc9nikD220415542022-12-07 00:35:3945.1376-91.48228612426997Clb=8.5m/s t=-60.8C h=-1.0% p=-1.0hPa 403.610 MHz Type=DFM17 ser=22041554 Radiosonde
KE0YJJD220415542022-12-07 00:35:3345.1375-91.4833838026980Clb=11.0m/s t=-60.9C h=-1.0% p=-1.0hPa 403.610 MHz Type=DFM17 ser=22041554 Radiosonde
kc9nikD220415542022-12-07 00:34:5045.1362-91.49226810026799Clb=1.8m/s t=-60.9C h=-1.0% p=-1.0hPa 403.610 MHz Type=DFM17 ser=22041554 Radiosonde
KE0YJJD220415542022-12-07 00:34:4445.1359-91.4935729326764Clb=9.1m/s t=-60.9C h=-1.0% p=-1.0hPa 403.610 MHz Type=DFM17 ser=22041554 Radiosonde
kc9nikD220415542022-12-07 00:34:0145.1328-91.50117210426582Clb=6.8m/s t=-60.5C h=-1.0% p=-1.0hPa 403.610 MHz Type=DFM17 ser=22041554 Radiosonde
KE0YJJD220415542022-12-07 00:33:5445.1325-91.502498726553Clb=6.5m/s t=-60.3C h=-1.0% p=-1.0hPa 403.610 MHz Type=DFM17 ser=22041554 Radiosonde
kc9nikD220415542022-12-07 00:33:0845.1297-91.5096665426354Clb=8.8m/s t=-58.7C h=-1.0% p=-1.0hPa 403.610 MHz Type=DFM17 ser=22041554 Radiosonde
KE0YJJD220415542022-12-07 00:33:0045.1294-91.5103679626331Clb=7.7m/s t=-58.6C h=-1.0% p=-1.0hPa 403.610 MHz Type=DFM17 ser=22041554 Radiosonde
kc9nikD220415542022-12-07 00:32:1245.1281-91.5179848726131Clb=9.0m/s t=-58.5C h=-1.0% p=-1.0hPa 403.610 MHz Type=DFM17 ser=22041554 Radiosonde
KE0YJJD220415542022-12-07 00:32:0345.1279-91.5193918726101Clb=7.8m/s t=-58.3C h=-1.0% p=-1.0hPa 403.610 MHz Type=DFM17 ser=22041554 Radiosonde
kc9nikD220415542022-12-07 00:31:1745.128-91.5277958725913Clb=7.6m/s t=-57.4C h=-1.0% p=-1.0hPa 403.610 MHz Type=DFM17 ser=22041554 Radiosonde
KE0YJJD220415542022-12-07 00:31:1045.1281-91.52899210225886Clb=7.6m/s t=-57.4C h=-1.0% p=-1.0hPa 403.610 MHz Type=DFM17 ser=22041554 Radiosonde
kc9nikD220415542022-12-07 00:30:2645.1289-91.53789312025715Clb=3.3m/s t=-58.7C h=-1.0% p=-1.0hPa 403.610 MHz Type=DFM17 ser=22041554 Radiosonde
KE0YJJD220415542022-12-07 00:30:2045.1291-91.53921067825697Clb=1.4m/s t=-58.9C h=-1.0% p=-1.0hPa 403.610 MHz Type=DFM17 ser=22041554 Radiosonde
kc9nikD220415542022-12-07 00:29:3445.1293-91.54728310625564Clb=1.1m/s t=-60.1C h=-1.0% p=-1.0hPa 403.610 MHz Type=DFM17 ser=22041554 Radiosonde
KE0YJJD220415542022-12-07 00:29:2845.1293-91.5484877425542Clb=2.5m/s t=-60.2C h=-1.0% p=-1.0hPa 403.610 MHz Type=DFM17 ser=22041554 Radiosonde
kc9nikD220415542022-12-07 00:28:4245.1283-91.55717710225396Clb=7.4m/s t=-60.5C h=-1.0% p=-1.0hPa 403.610 MHz Type=DFM17 ser=22041554 Radiosonde
KE0YJJD220415542022-12-07 00:28:3645.1282-91.5583849825381Clb=6.2m/s t=-60.6C h=-1.0% p=-1.0hPa 403.610 MHz Type=DFM17 ser=22041554 Radiosonde
kc9nikD220415542022-12-07 00:27:5545.1272-91.567908925238Clb=9.1m/s t=-61.5C h=-1.0% p=-1.0hPa 403.610 MHz Type=DFM17 ser=22041554 Radiosonde
KE0YJJD220415542022-12-07 00:27:5145.1269-91.56795910025212Clb=8.1m/s t=-62.0C h=-1.0% p=-1.0hPa 403.610 MHz Type=DFM17 ser=22041554 Radiosonde
kc9nikD220415542022-12-07 00:27:4245.1185-91.62591028023432Clb=6.7m/s t=-59.5C h=-1.0% p=-1.0hPa 403.610 MHz Type=DFM17 ser=22041554 Radiosonde
kc9nikD220415542022-12-07 00:27:1945.1181-91.635899823260Clb=4.1m/s t=-59.0C h=-1.0% p=-1.0hPa 403.610 MHz Type=DFM17 ser=22041554 Radiosonde
KE0YJJD220415542022-12-07 00:27:1445.1182-91.6359956923239Clb=5.1m/s t=-58.9C h=-1.0% p=-1.0hPa 403.610 MHz Type=DFM17 ser=22041554 Radiosonde
kc9nikD220415542022-12-07 00:27:0045.1183-91.64489110623065Clb=6.0m/s t=-58.8C h=-1.0% p=-1.0hPa 403.610 MHz Type=DFM17 ser=22041554 Radiosonde
kc9nikD220415542022-12-07 00:26:5945.1179-91.6557867622868Clb=4.8m/s t=-59.9C h=-1.0% p=-1.0hPa 403.610 MHz Type=DFM17 ser=22041554 Radiosonde
KE0YJJD220415542022-12-07 00:26:5845.1177-91.65697810022841Clb=7.5m/s t=-59.7C h=-1.0% p=-1.0hPa 403.610 MHz Type=DFM17 ser=22041554 Radiosonde
kc9nikD220415542022-12-07 00:26:5745.1166-91.6656748522669Clb=8.0m/s t=-59.5C h=-1.0% p=-1.0hPa 403.610 MHz Type=DFM17 ser=22041554 Radiosonde
KE0YJJD220415542022-12-07 00:26:5645.1163-91.6669858922647Clb=9.4m/s t=-59.7C h=-1.0% p=-1.0hPa 403.610 MHz Type=DFM17 ser=22041554 Radiosonde
kc9nikD220415542022-12-07 00:26:2745.1153-91.6746887822484Clb=3.9m/s t=-60.4C h=-1.0% p=-1.0hPa 403.610 MHz Type=DFM17 ser=22041554 Radiosonde
KE0YJJD220415542022-12-07 00:26:1945.1152-91.6759808922459Clb=7.3m/s t=-60.5C h=-1.0% p=-1.0hPa 403.610 MHz Type=DFM17 ser=22041554 Radiosonde
kc9nikD220415542022-12-07 00:25:3445.1151-91.6841047822289Clb=4.1m/s t=-59.9C h=-1.0% p=-1.0hPa 403.610 MHz Type=DFM17 ser=22041554 Radiosonde
KE0YJJD220415542022-12-07 00:25:2745.1151-91.6851899122267Clb=5.8m/s t=-60.0C h=-1.0% p=-1.0hPa 403.610 MHz Type=DFM17 ser=22041554 Radiosonde
kc9nikD220415542022-12-07 00:24:4345.1158-91.6942908122100Clb=6.9m/s t=-60.8C h=-1.0% p=-1.0hPa 403.610 MHz Type=DFM17 ser=22041554 Radiosonde
KE0YJJD220415542022-12-07 00:24:3545.1159-91.69569110022078Clb=4.6m/s t=-60.8C h=-1.0% p=-1.0hPa 403.610 MHz Type=DFM17 ser=22041554 Radiosonde
kc9nikD220415542022-12-07 00:23:4845.1162-91.7034708021916Clb=3.0m/s t=-60.6C h=-1.0% p=-1.0hPa 403.610 MHz Type=DFM17 ser=22041554 Radiosonde
KE0YJJD220415542022-12-07 00:23:4145.1162-91.70451118721891Clb=4.1m/s t=-60.5C h=-1.0% p=-1.0hPa 403.610 MHz Type=DFM17 ser=22041554 Radiosonde
kc9nikD220415542022-12-07 00:22:5245.1165-91.7123945721732Clb=6.2m/s t=-60.2C h=-1.0% p=-1.0hPa 403.610 MHz Type=DFM17 ser=22041554 Radiosonde
KE0YJJD220415542022-12-07 00:22:4545.1166-91.7133959121709Clb=4.5m/s t=-60.1C h=-1.0% p=-1.0hPa 403.610 MHz Type=DFM17 ser=22041554 Radiosonde
kc9nikD220415542022-12-07 00:21:5845.1165-91.7214908021550Clb=7.3m/s t=-59.5C h=-1.0% p=-1.0hPa 403.610 MHz Type=DFM17 ser=22041554 Radiosonde
KE0YJJD220415542022-12-07 00:21:5245.1165-91.72258610421526Clb=5.5m/s t=-59.4C h=-1.0% p=-1.0hPa 403.610 MHz Type=DFM17 ser=22041554 Radiosonde
kc9nikD220415542022-12-07 00:21:0545.116-91.73157011321359Clb=5.4m/s t=-59.0C h=-1.0% p=-1.0hPa 403.610 MHz Type=DFM17 ser=22041554 Radiosonde
KE0YJJD220415542022-12-07 00:20:5945.1159-91.73329310221334Clb=7.2m/s t=-58.9C h=-1.0% p=-1.0hPa 403.610 MHz Type=DFM17 ser=22041554 Radiosonde
kc9nikD220415542022-12-07 00:20:1445.1147-91.74437912021163Clb=7.1m/s t=-60.0C h=-1.0% p=-1.0hPa 403.610 MHz Type=DFM17 ser=22041554 Radiosonde
KE0YJJD220415542022-12-07 00:20:0645.1144-91.74567113021142Clb=7.3m/s t=-60.1C h=-1.0% p=-1.0hPa 403.610 MHz Type=DFM17 ser=22041554 Radiosonde
kc9nikD220415542022-12-07 00:19:2145.1116-91.75686011720965Clb=5.8m/s t=-60.8C h=-1.0% p=-1.0hPa 403.610 MHz Type=DFM17 ser=22041554 Radiosonde
KE0YJJD220415542022-12-07 00:19:1345.1112-91.75836711320937Clb=7.7m/s t=-60.7C h=-1.0% p=-1.0hPa 403.610 MHz Type=DFM17 ser=22041554 Radiosonde
kc9nikD220415542022-12-07 00:18:2945.1076-91.76816110620754Clb=7.2m/s t=-60.6C h=-1.0% p=-1.0hPa 403.610 MHz Type=DFM17 ser=22041554 Radiosonde
KE0YJJD220415542022-12-07 00:18:1945.107-91.76945511120726Clb=5.1m/s t=-60.7C h=-1.0% p=-1.0hPa 403.610 MHz Type=DFM17 ser=22041554 Radiosonde
kc9nikD220415542022-12-07 00:17:3345.1033-91.7769569120547Clb=6.2m/s t=-60.5C h=-1.0% p=-1.0hPa 403.610 MHz Type=DFM17 ser=22041554 Radiosonde
KE0YJJD220415542022-12-07 00:17:2445.1027-91.7781569820515Clb=6.0m/s t=-60.6C h=-1.0% p=-1.0hPa 403.610 MHz Type=DFM17 ser=22041554 Radiosonde
kc9nikD220415542022-12-07 00:16:3645.0995-91.7845598120368Clb=5.5m/s t=-60.1C h=-1.0% p=-1.0hPa 403.610 MHz Type=DFM17 ser=22041554 Radiosonde
KE0YJJD220415542022-12-07 00:16:2945.0991-91.7857539320347Clb=7.7m/s t=-60.0C h=-1.0% p=-1.0hPa 403.610 MHz Type=DFM17 ser=22041554 Radiosonde
kc9nikD220415542022-12-07 00:15:4345.0969-91.7921766320170Clb=6.2m/s t=-59.0C h=-1.0% p=-1.0hPa 403.610 MHz Type=DFM17 ser=22041554 Radiosonde
KE0YJJD220415542022-12-07 00:15:3645.0967-91.793797220146Clb=7.1m/s t=-58.9C h=-1.0% p=-1.0hPa 403.610 MHz Type=DFM17 ser=22041554 Radiosonde
kc9nikD220415542022-12-07 00:14:5045.0958-91.7993847420006Clb=6.1m/s t=-58.0C h=-1.0% p=-1.0hPa 403.610 MHz Type=DFM17 ser=22041554 Radiosonde
KE0YJJD220415542022-12-07 00:14:4445.0956-91.8005827419979Clb=6.4m/s t=-57.9C h=-1.0% p=-1.0hPa 403.610 MHz Type=DFM17 ser=22041554 Radiosonde
kc9nikD220415542022-12-07 00:13:5745.0954-91.8069786119833Clb=5.9m/s t=-57.5C h=-1.0% p=-1.0hPa 403.610 MHz Type=DFM17 ser=22041554 Radiosonde
KE0YJJD220415542022-12-07 00:13:5145.0954-91.808988019810Clb=5.1m/s t=-57.5C h=-1.0% p=-1.0hPa 403.610 MHz Type=DFM17 ser=22041554 Radiosonde
kc9nikD220415542022-12-07 00:13:0545.096-91.815710312219670Clb=5.7m/s t=-59.3C h=-1.0% p=-1.0hPa 403.610 MHz Type=DFM17 ser=22041554 Radiosonde
KE0YJJD220415542022-12-07 00:12:5845.0963-91.81769811119639Clb=5.9m/s t=-60.0C h=-1.0% p=-1.0hPa 403.610 MHz Type=DFM17 ser=22041554 Radiosonde
kc9nikD220415542022-12-07 00:12:3945.0969-91.82839611519494Clb=6.3m/s t=-62.5C h=-1.0% p=-1.0hPa 403.610 MHz Type=DFM17 ser=22041554 Radiosonde
KE0YJJD220415542022-12-07 00:12:3345.0969-91.82959310919477Clb=4.4m/s t=-62.6C h=-1.0% p=-1.0hPa 403.610 MHz Type=DFM17 ser=22041554 Radiosonde
kc9nikD220415542022-12-07 00:11:5245.097-91.84058810419327Clb=6.1m/s t=-61.9C h=-1.0% p=-1.0hPa 403.610 MHz Type=DFM17 ser=22041554 Radiosonde
KE0YJJD220415542022-12-07 00:11:4845.097-91.84219112019304Clb=4.6m/s t=-61.7C h=-1.0% p=-1.0hPa 403.610 MHz Type=DFM17 ser=22041554 Radiosonde
kc9nikD220415542022-12-07 00:11:2545.0967-91.85288210619151Clb=5.4m/s t=-61.2C h=-1.0% p=-1.0hPa 403.610 MHz Type=DFM17 ser=22041554 Radiosonde
KE0YJJD220415542022-12-07 00:11:2045.0966-91.85458511919127Clb=6.3m/s t=-61.4C h=-1.0% p=-1.0hPa 403.610 MHz Type=DFM17 ser=22041554 Radiosonde
kc9nikD220415542022-12-07 00:10:5545.0954-91.86647712418970Clb=2.2m/s t=-61.9C h=-1.0% p=-1.0hPa 403.610 MHz Type=DFM17 ser=22041554 Radiosonde
KE0YJJD220415542022-12-07 00:10:5445.0953-91.86838812618949Clb=5.2m/s t=-62.1C h=-1.0% p=-1.0hPa 403.610 MHz Type=DFM17 ser=22041554 Radiosonde
kc9nikD220415542022-12-07 00:10:4445.094-91.888312618818Clb=7.0m/s t=-62.2C h=-1.0% p=-1.0hPa 403.610 MHz Type=DFM17 ser=22041554 Radiosonde
KE0YJJD220415542022-12-07 00:10:4245.0938-91.88187811318796Clb=3.0m/s t=-62.3C h=-1.0% p=-1.0hPa 403.610 MHz Type=DFM17 ser=22041554 Radiosonde
kc9nikD220415542022-12-07 00:10:2045.0928-91.89538413918657Clb=4.1m/s t=-63.0C h=-1.0% p=-1.0hPa 403.610 MHz Type=DFM17 ser=22041554 Radiosonde
KE0YJJD220415542022-12-07 00:10:1645.0927-91.89698415618642Clb=3.0m/s t=-62.8C h=-1.0% p=-1.0hPa 403.610 MHz Type=DFM17 ser=22041554 Radiosonde
kc9nikD220415542022-12-07 00:10:0045.092-91.91088816118505Clb=5.0m/s t=-62.2C h=-1.0% p=-1.0hPa 403.610 MHz Type=DFM17 ser=22041554 Radiosonde
kc9nikD220415542022-12-07 00:09:5345.0906-91.92738415018337Clb=6.8m/s t=-62.2C h=-1.0% p=-1.0hPa 403.610 MHz Type=DFM17 ser=22041554 Radiosonde
KE0YJJD220415542022-12-07 00:09:5245.0904-91.92937913518315Clb=4.6m/s t=-62.4C h=-1.0% p=-1.0hPa 403.610 MHz Type=DFM17 ser=22041554 Radiosonde
kc9nikD220415542022-12-07 00:09:4845.089-91.94347714318169Clb=5.3m/s t=-62.1C h=-1.0% p=-1.0hPa 403.610 MHz Type=DFM17 ser=22041554 Radiosonde
KE0YJJD220415542022-12-07 00:09:4745.0887-91.9468314418140Clb=5.5m/s t=-61.9C h=-1.0% p=-1.0hPa 403.610 MHz Type=DFM17 ser=22041554 Radiosonde
kc9nikD220415542022-12-07 00:09:4645.0868-91.96027815017993Clb=5.8m/s t=-63.2C h=-1.0% p=-1.0hPa 403.610 MHz Type=DFM17 ser=22041554 Radiosonde
kc9nikD220415542022-12-07 00:09:4445.0845-91.97657514817810Clb=5.9m/s t=-63.3C h=-1.0% p=-1.0hPa 403.610 MHz Type=DFM17 ser=22041554 Radiosonde
kc9nikD220415542022-12-07 00:09:4345.0816-91.99187315217637Clb=4.5m/s t=-62.6C h=-1.0% p=-1.0hPa 403.610 MHz Type=DFM17 ser=22041554 Radiosonde
KE0YJJD220415542022-12-07 00:09:4245.0811-91.99396815017616Clb=7.7m/s t=-62.6C h=-1.0% p=-1.0hPa 403.610 MHz Type=DFM17 ser=22041554 Radiosonde
kc9nikD220415542022-12-07 00:09:4145.0772-92.00767014417466Clb=6.0m/s t=-62.2C h=-1.0% p=-1.0hPa 403.610 MHz Type=DFM17 ser=22041554 Radiosonde
kc9nikD220415542022-12-07 00:09:2645.0722-92.02256915217308Clb=5.5m/s t=-62.5C h=-1.0% p=-1.0hPa 403.610 MHz Type=DFM17 ser=22041554 Radiosonde
KE0YJJD220415542022-12-07 00:09:1945.0715-92.02476414617283Clb=6.1m/s t=-62.7C h=-1.0% p=-1.0hPa 403.610 MHz Type=DFM17 ser=22041554 Radiosonde
kc9nikD220415542022-12-07 00:08:3545.0676-92.03676313717147Clb=5.5m/s t=-62.9C h=-1.0% p=-1.0hPa 403.610 MHz Type=DFM17 ser=22041554 Radiosonde
KE0YJJD220415542022-12-07 00:08:2845.0669-92.03896613017122Clb=5.0m/s t=-63.0C h=-1.0% p=-1.0hPa 403.610 MHz Type=DFM17 ser=22041554 Radiosonde
kc9nikD220415542022-12-07 00:07:4645.0634-92.05096713716990Clb=3.0m/s t=-62.4C h=-1.0% p=-1.0hPa 403.610 MHz Type=DFM17 ser=22041554 Radiosonde
KE0YJJD220415542022-12-07 00:07:3845.0627-92.05336613716965Clb=3.8m/s t=-62.4C h=-1.0% p=-1.0hPa 403.610 MHz Type=DFM17 ser=22041554 Radiosonde
kc9nikD220415542022-12-07 00:06:5345.0594-92.06526213716831Clb=5.4m/s t=-62.2C h=-1.0% p=-1.0hPa 403.610 MHz Type=DFM17 ser=22041554 Radiosonde
KE0YJJD220415542022-12-07 00:06:4745.0587-92.06746713316803Clb=5.0m/s t=-62.2C h=-1.0% p=-1.0hPa 403.610 MHz Type=DFM17 ser=22041554 Radiosonde
kc9nikD220415542022-12-07 00:05:5845.055-92.07966713916669Clb=5.6m/s t=-61.5C h=-1.0% p=-1.0hPa 403.610 MHz Type=DFM17 ser=22041554 Radiosonde
KE0YJJD220415542022-12-07 00:05:5345.054-92.08246813316637Clb=5.2m/s t=-61.3C h=-1.0% p=-1.0hPa 403.610 MHz Type=DFM17 ser=22041554 Radiosonde
kc9nikD220415542022-12-07 00:05:0645.0505-92.09387413316502Clb=7.0m/s t=-60.7C h=-1.0% p=-1.0hPa 403.610 MHz Type=DFM17 ser=22041554 Radiosonde
KE0YJJD220415542022-12-07 00:05:0045.0498-92.09616715216472Clb=4.7m/s t=-60.5C h=-1.0% p=-1.0hPa 403.610 MHz Type=DFM17 ser=22041554 Radiosonde
kc9nikD220415542022-12-07 00:04:1745.0466-92.10877113316309Clb=6.7m/s t=-59.3C h=-1.0% p=-1.0hPa 403.610 MHz Type=DFM17 ser=22041554 Radiosonde
KE0YJJD220415542022-12-07 00:04:0945.0463-92.10996812616292Clb=6.1m/s t=-59.1C h=-1.0% p=-1.0hPa 403.610 MHz Type=DFM17 ser=22041554 Radiosonde
kc9nikD220415542022-12-07 00:03:2745.0438-92.12187412216131Clb=5.7m/s t=-58.3C h=-1.0% p=-1.0hPa 403.610 MHz Type=DFM17 ser=22041554 Radiosonde
KE0YJJD220415542022-12-07 00:03:1945.0435-92.12357813316110Clb=4.1m/s t=-58.4C h=-1.0% p=-1.0hPa 403.610 MHz Type=DFM17 ser=22041554 Radiosonde
kc9nikD220415542022-12-07 00:02:3945.0419-92.13638413115951Clb=6.2m/s t=-58.1C h=-1.0% p=-1.0hPa 403.610 MHz Type=DFM17 ser=22041554 Radiosonde
KE0YJJD220415542022-12-07 00:02:2945.0417-92.13827714815929Clb=4.6m/s t=-58.0C h=-1.0% p=-1.0hPa 403.610 MHz Type=DFM17 ser=22041554 Radiosonde
kc9nikD220415542022-12-07 00:01:4545.0393-92.15097814615775Clb=6.9m/s t=-57.7C h=-1.0% p=-1.0hPa 403.610 MHz Type=DFM17 ser=22041554 Radiosonde
KE0YJJD220415542022-12-07 00:01:3545.0389-92.15337614115747Clb=5.0m/s t=-57.4C h=-1.0% p=-1.0hPa 403.610 MHz Type=DFM17 ser=22041554 Radiosonde
kc9nikD220415542022-12-07 00:00:4945.0367-92.16667413715587Clb=5.2m/s t=-273.0C h=-1.0% p=-1.0hPa 403.610 MHz Type=DFM17 ser=22041554 Radiosonde
KE0YJJD220415542022-12-07 00:00:4145.0366-92.16758114115574Clb=5.2m/s t=-56.9C h=-1.0% p=-1.0hPa 403.610 MHz Type=DFM17 ser=22041554 Radiosonde
kc9nikD220415542022-12-06 23:59:5845.0337-92.18087214315417Clb=5.7m/s t=-56.5C h=-1.0% p=-1.0hPa 403.610 MHz Type=DFM17 ser=22041554 Radiosonde
KE0YJJD220415542022-12-06 23:59:5445.0333-92.18236913915402Clb=5.6m/s t=-56.6C h=-1.0% p=-1.0hPa 403.610 MHz Type=DFM17 ser=22041554 Radiosonde
kc9nikD220415542022-12-06 23:59:3945.0306-92.19527713515262Clb=3.1m/s t=-56.8C h=-1.0% p=-1.0hPa 403.610 MHz Type=DFM17 ser=22041554 Radiosonde
KE0YJJD220415542022-12-06 23:59:3745.028-92.21328116515082Clb=6.1m/s t=-57.0C h=-1.0% p=-1.0hPa 403.610 MHz Type=DFM17 ser=22041554 Radiosonde
kc9nikD220415542022-12-06 23:59:3645.0266-92.22917917814936Clb=3.9m/s t=-57.8C h=-1.0% p=-1.0hPa 403.610 MHz Type=DFM17 ser=22041554 Radiosonde
KE0YJJD220415542022-12-06 23:59:3545.0262-92.23158217814917Clb=5.4m/s t=-57.7C h=-1.0% p=-1.0hPa 403.610 MHz Type=DFM17 ser=22041554 Radiosonde
kc9nikD220415542022-12-06 23:59:3045.0241-92.24677417014775Clb=4.0m/s t=-57.8C h=-1.0% p=-1.0hPa 403.610 MHz Type=DFM17 ser=22041554 Radiosonde
kc9nikD220415542022-12-06 23:59:0845.0208-92.26447717414612Clb=5.8m/s t=-57.1C h=-1.0% p=-1.0hPa 403.610 MHz Type=DFM17 ser=22041554 Radiosonde
KE0YJJD220415542022-12-06 23:59:0445.0203-92.26677118014592Clb=4.5m/s t=-57.0C h=-1.0% p=-1.0hPa 403.610 MHz Type=DFM17 ser=22041554 Radiosonde
kc9nikD220415542022-12-06 23:59:0045.017-92.28227216914458Clb=5.5m/s t=-56.3C h=-1.0% p=-1.0hPa 403.610 MHz Type=DFM17 ser=22041554 Radiosonde
KE0YJJD220415542022-12-06 23:58:5945.0165-92.28447015914437Clb=4.2m/s t=-56.2C h=-1.0% p=-1.0hPa 403.610 MHz Type=DFM17 ser=22041554 Radiosonde
kc9nikD220415542022-12-06 23:58:5845.0132-92.29977417614305Clb=3.7m/s t=-55.7C h=-1.0% p=-1.0hPa 403.610 MHz Type=DFM17 ser=22041554 Radiosonde
KE0YJJD220415542022-12-06 23:58:5545.0126-92.30337517614277Clb=4.9m/s t=-55.5C h=-1.0% p=-1.0hPa 403.610 MHz Type=DFM17 ser=22041554 Radiosonde
kc9nikD220415542022-12-06 23:58:1945.0096-92.31797215614155Clb=3.2m/s t=-55.0C h=-1.0% p=-1.0hPa 403.610 MHz Type=DFM17 ser=22041554 Radiosonde
KE0YJJD220415542022-12-06 23:58:1145.0091-92.32027616914137Clb=5.1m/s t=-55.1C h=-1.0% p=-1.0hPa 403.610 MHz Type=DFM17 ser=22041554 Radiosonde
kc9nikD220415542022-12-06 23:57:2545.0062-92.33457517014018Clb=5.7m/s t=-55.5C h=-1.0% p=-1.0hPa 403.610 MHz Type=DFM17 ser=22041554 Radiosonde
KE0YJJD220415542022-12-06 23:57:1745.0057-92.33747517613995Clb=5.1m/s t=-55.6C h=-1.0% p=-1.0hPa 403.610 MHz Type=DFM17 ser=22041554 Radiosonde
kc9nikD220415542022-12-06 23:56:3145.0032-92.35247817413879Clb=5.3m/s t=-55.5C h=-1.0% p=-1.0hPa 403.610 MHz Type=DFM17 ser=22041554 Radiosonde
KE0YJJD220415542022-12-06 23:56:2445.0027-92.35537816113855Clb=4.3m/s t=-55.5C h=-1.0% p=-1.0hPa 403.610 MHz Type=DFM17 ser=22041554 Radiosonde
kc9nikD220415542022-12-06 23:55:4045.0004-92.37278216913725Clb=5.2m/s t=-55.4C h=-1.0% p=-1.0hPa 403.610 MHz Type=DFM17 ser=22041554 Radiosonde
KE0YJJD220415542022-12-06 23:55:3445.0003-92.37397917413717Clb=4.9m/s t=-55.4C h=-1.0% p=-1.0hPa 403.610 MHz Type=DFM17 ser=22041554 Radiosonde
kc9nikD220415542022-12-06 23:54:5144.9985-92.39028018013596Clb=5.6m/s t=-54.5C h=-1.0% p=-1.0hPa 403.610 MHz Type=DFM17 ser=22041554 Radiosonde
KE0YJJD220415542022-12-06 23:54:4544.9982-92.39418319413565Clb=3.3m/s t=-54.3C h=-1.0% p=-1.0hPa 403.610 MHz Type=DFM17 ser=22041554 Radiosonde
kc9nikD220415542022-12-06 23:54:0244.9967-92.4118519113443Clb=4.0m/s t=-53.6C h=-1.0% p=-1.0hPa 403.610 MHz Type=DFM17 ser=22041554 Radiosonde
KE0YJJD220415542022-12-06 23:53:5544.9965-92.41378418713423Clb=5.6m/s t=-53.8C h=-1.0% p=-1.0hPa 403.610 MHz Type=DFM17 ser=22041554 Radiosonde
kc9nikD220415542022-12-06 23:53:1244.9953-92.43168418913301Clb=3.4m/s t=-53.7C h=-1.0% p=-1.0hPa 403.610 MHz Type=DFM17 ser=22041554 Radiosonde
KE0YJJD220415542022-12-06 23:53:0644.9951-92.43428718113283Clb=3.5m/s t=-53.7C h=-1.0% p=-1.0hPa 403.610 MHz Type=DFM17 ser=22041554 Radiosonde
kc9nikD220415542022-12-06 23:52:2144.9939-92.45268319313156Clb=5.7m/s t=-53.9C h=-1.0% p=-1.0hPa 403.610 MHz Type=DFM17 ser=22041554 Radiosonde
KE0YJJD220415542022-12-06 23:52:1244.9937-92.45538520613138Clb=4.1m/s t=-53.8C h=-1.0% p=-1.0hPa 403.610 MHz Type=DFM17 ser=22041554 Radiosonde
kc9nikD220415542022-12-06 23:51:4144.9926-92.47448620213009Clb=4.7m/s t=-54.0C h=-1.0% p=-1.0hPa 403.610 MHz Type=DFM17 ser=22041554 Radiosonde
KE0YJJD220415542022-12-06 23:51:3744.9924-92.47748620612990Clb=5.5m/s t=-54.0C h=-1.0% p=-1.0hPa 403.610 MHz Type=DFM17 ser=22041554 Radiosonde
kc9nikD220415542022-12-06 23:51:2744.9909-92.49688520012853Clb=5.6m/s t=-54.3C h=-1.0% p=-1.0hPa 403.610 MHz Type=DFM17 ser=22041554 Radiosonde
KE0YJJD220415542022-12-06 23:51:2644.9908-92.49898120012838Clb=5.6m/s t=-54.3C h=-1.0% p=-1.0hPa 403.610 MHz Type=DFM17 ser=22041554 Radiosonde
kc9nikD220415542022-12-06 23:51:0344.9896-92.51898621312696Clb=5.7m/s t=-54.1C h=-1.0% p=-1.0hPa 403.610 MHz Type=DFM17 ser=22041554 Radiosonde
KE0YJJD220415542022-12-06 23:51:0144.9894-92.5228621912674Clb=6.2m/s t=-54.0C h=-1.0% p=-1.0hPa 403.610 MHz Type=DFM17 ser=22041554 Radiosonde
kc9nikD220415542022-12-06 23:50:5644.9882-92.5438422612539Clb=6.3m/s t=-53.9C h=-1.0% p=-1.0hPa 403.610 MHz Type=DFM17 ser=22041554 Radiosonde
kc9nikD220415542022-12-06 23:50:5444.9864-92.56728422212386Clb=4.6m/s t=-54.2C h=-1.0% p=-1.0hPa 403.610 MHz Type=DFM17 ser=22041554 Radiosonde
kc9nikD220415542022-12-06 23:50:5344.9844-92.59178323012233Clb=4.7m/s t=-53.3C h=-1.0% p=-1.0hPa 403.610 MHz Type=DFM17 ser=22041554 Radiosonde
KE0YJJD220415542022-12-06 23:50:5244.9842-92.59488122812213Clb=4.7m/s t=-53.3C h=-1.0% p=-1.0hPa 403.610 MHz Type=DFM17 ser=22041554 Radiosonde
kc9nikD220415542022-12-06 23:50:5044.9818-92.61637922412086Clb=4.4m/s t=-54.0C h=-1.0% p=-1.0hPa 403.610 MHz Type=DFM17 ser=22041554 Radiosonde
KE0YJJD220415542022-12-06 23:50:4744.9814-92.61947921912067Clb=3.6m/s t=-54.0C h=-1.0% p=-1.0hPa 403.610 MHz Type=DFM17 ser=22041554 Radiosonde
kc9nikD220415542022-12-06 23:50:1744.9787-92.63967820911942Clb=5.7m/s t=-54.0C h=-1.0% p=-1.0hPa 403.610 MHz Type=DFM17 ser=22041554 Radiosonde
KE0YJJD220415542022-12-06 23:50:0944.9782-92.64267623011924Clb=3.6m/s t=-54.1C h=-1.0% p=-1.0hPa 403.610 MHz Type=DFM17 ser=22041554 Radiosonde
kc9nikD220415542022-12-06 23:49:2944.9747-92.6637621311803Clb=4.0m/s t=-55.0C h=-1.0% p=-1.0hPa 403.610 MHz Type=DFM17 ser=22041554 Radiosonde
KE0YJJD220415542022-12-06 23:49:2044.9739-92.66757622211774Clb=5.7m/s t=-55.3C h=-1.0% p=-1.0hPa 403.610 MHz Type=DFM17 ser=22041554 Radiosonde
kc9nikD220415542022-12-06 23:48:4044.971-92.68638021511657Clb=4.2m/s t=-56.4C h=-1.0% p=-1.0hPa 403.610 MHz Type=DFM17 ser=22041554 Radiosonde
KE0YJJD220415542022-12-06 23:48:3244.9705-92.697921711635Clb=3.6m/s t=-56.5C h=-1.0% p=-1.0hPa 403.610 MHz Type=DFM17 ser=22041554 Radiosonde
kc9nikD220415542022-12-06 23:47:5744.9677-92.70967921111517Clb=4.2m/s t=-57.3C h=-1.0% p=-1.0hPa 403.610 MHz Type=DFM17 ser=22041554 Radiosonde
KE0YJJD220415542022-12-06 23:47:5244.9671-92.71337821911494Clb=5.1m/s t=-57.4C h=-1.0% p=-1.0hPa 403.610 MHz Type=DFM17 ser=22041554 Radiosonde
kc9nikD220415542022-12-06 23:47:0744.964-92.73358021111374Clb=5.3m/s t=-57.9C h=-1.0% p=-1.0hPa 403.610 MHz Type=DFM17 ser=22041554 Radiosonde
KE0YJJD220415542022-12-06 23:46:5944.9636-92.73647621111356Clb=4.3m/s t=-57.9C h=-1.0% p=-1.0hPa 403.610 MHz Type=DFM17 ser=22041554 Radiosonde
kc9nikD220415542022-12-06 23:46:1544.9609-92.7568122411235Clb=2.6m/s t=-57.7C h=-1.0% p=-1.0hPa 403.610 MHz Type=DFM17 ser=22041554 Radiosonde
KE0YJJD220415542022-12-06 23:46:0944.9603-92.75977822211212Clb=3.5m/s t=-57.9C h=-1.0% p=-1.0hPa 403.610 MHz Type=DFM17 ser=22041554 Radiosonde
kc9nikD220415542022-12-06 23:45:2644.9569-92.77997423011088Clb=4.1m/s t=-57.3C h=-1.0% p=-1.0hPa 403.610 MHz Type=DFM17 ser=22041554 Radiosonde
KE0YJJD220415542022-12-06 23:45:2044.9561-92.78467721911061Clb=5.7m/s t=-57.2C h=-1.0% p=-1.0hPa 403.610 MHz Type=DFM17 ser=22041554 Radiosonde
kc9nikD220415542022-12-06 23:44:4044.9528-92.8047822010933Clb=5.5m/s t=-56.3C h=-1.0% p=-1.0hPa 403.610 MHz Type=DFM17 ser=22041554 Radiosonde
KE0YJJD220415542022-12-06 23:44:3344.9522-92.8087522010908Clb=3.5m/s t=-56.2C h=-1.0% p=-1.0hPa 403.610 MHz Type=DFM17 ser=22041554 Radiosonde
kc9nikD220415542022-12-06 23:43:5644.9486-92.82877523710776Clb=6.2m/s t=-55.7C h=-1.0% p=-1.0hPa 403.610 MHz Type=DFM17 ser=22041554 Radiosonde
KE0YJJD220415542022-12-06 23:43:5144.9479-92.83267222810750Clb=4.6m/s t=-55.8C h=-1.0% p=-1.0hPa 403.610 MHz Type=DFM17 ser=22041554 Radiosonde
kc9nikD220415542022-12-06 23:43:2944.944-92.85217121510612Clb=5.1m/s t=-55.5C h=-1.0% p=-1.0hPa 403.610 MHz Type=DFM17 ser=22041554 Radiosonde
kc9nikD220415542022-12-06 23:43:1244.939-92.87457220710450Clb=3.6m/s t=-54.4C h=-1.0% p=-1.0hPa 403.610 MHz Type=DFM17 ser=22041554 Radiosonde
KE0YJJD220415542022-12-06 23:43:0844.9382-92.8787321110428Clb=4.3m/s t=-54.4C h=-1.0% p=-1.0hPa 403.610 MHz Type=DFM17 ser=22041554 Radiosonde
kc9nikD220415542022-12-06 23:43:0044.9341-92.89727221510302Clb=3.0m/s t=-54.2C h=-1.0% p=-1.0hPa 403.610 MHz Type=DFM17 ser=22041554 Radiosonde
kc9nikD220415542022-12-06 23:42:4844.9291-92.91877020410157Clb=4.8m/s t=-53.9C h=-1.0% p=-1.0hPa 403.610 MHz Type=DFM17 ser=22041554 Radiosonde
KE0YJJD220415542022-12-06 23:42:4144.9282-92.92226821710131Clb=6.0m/s t=-53.7C h=-1.0% p=-1.0hPa 403.610 MHz Type=DFM17 ser=22041554 Radiosonde
kc9nikD220415542022-12-06 23:41:5944.9239-92.94187620010001Clb=4.9m/s t=-53.7C h=-1.0% p=-1.0hPa 403.610 MHz Type=DFM17 ser=22041554 Radiosonde
KE0YJJD220415542022-12-06 23:41:5344.9234-92.9439712049987Clb=3.5m/s t=-53.7C h=-1.0% p=-1.0hPa 403.610 MHz Type=DFM17 ser=22041554 Radiosonde
kc9nikD220415542022-12-06 23:41:1244.9195-92.9618761939861Clb=5.5m/s t=-53.9C h=-1.0% p=-1.0hPa 403.610 MHz Type=DFM17 ser=22041554 Radiosonde
KE0YJJD220415542022-12-06 23:41:0444.919-92.9644731839842Clb=6.2m/s t=-53.8C h=-1.0% p=-1.0hPa 403.610 MHz Type=DFM17 ser=22041554 Radiosonde
kc9nikD220415542022-12-06 23:40:2644.9158-92.9813771769718Clb=3.5m/s t=-53.8C h=-1.0% p=-1.0hPa 403.610 MHz Type=DFM17 ser=22041554 Radiosonde
KE0YJJD220415542022-12-06 23:40:1944.9154-92.9838781729700Clb=4.2m/s t=-53.8C h=-1.0% p=-1.0hPa 403.610 MHz Type=DFM17 ser=22041554 Radiosonde
kc9nikD220415542022-12-06 23:39:4744.9126-93.0004781839573Clb=4.3m/s t=-54.1C h=-1.0% p=-1.0hPa 403.610 MHz Type=DFM17 ser=22041554 Radiosonde
KE0YJJD220415542022-12-06 23:39:4344.9122-93.0034761789547Clb=5.6m/s t=-54.0C h=-1.0% p=-1.0hPa 403.610 MHz Type=DFM17 ser=22041554 Radiosonde
kc9nikD220415542022-12-06 23:39:1644.9096-93.0191801619402Clb=4.1m/s t=-54.2C h=-1.0% p=-1.0hPa 403.610 MHz Type=DFM17 ser=22041554 Radiosonde
KE0YJJD220415542022-12-06 23:39:1244.9091-93.022761639374Clb=7.1m/s t=-54.1C h=-1.0% p=-1.0hPa 403.610 MHz Type=DFM17 ser=22041554 Radiosonde
kc9nikD220415542022-12-06 23:38:4544.9063-93.0364711599241Clb=4.2m/s t=-53.9C h=-1.0% p=-1.0hPa 403.610 MHz Type=DFM17 ser=22041554 Radiosonde
KE0YJJD220415542022-12-06 23:38:4144.9057-93.039741549214Clb=6.2m/s t=-53.8C h=-1.0% p=-1.0hPa 403.610 MHz Type=DFM17 ser=22041554 Radiosonde
kc9nikD220415542022-12-06 23:38:1544.9025-93.0525841599052Clb=4.8m/s t=-52.6C h=-1.0% p=-1.0hPa 403.610 MHz Type=DFM17 ser=22041554 Radiosonde
kc9nikD220415542022-12-06 23:38:1444.8994-93.0682721438835Clb=5.4m/s t=-50.7C h=-1.0% p=-1.0hPa 403.610 MHz Type=DFM17 ser=22041554 Radiosonde
KE0YJJD220415542022-12-06 23:38:1344.8989-93.0711761548807Clb=6.2m/s t=-50.4C h=-1.0% p=-1.0hPa 403.610 MHz Type=DFM17 ser=22041554 Radiosonde
kc9nikD220415542022-12-06 23:37:4544.897-93.0843781468640Clb=6.7m/s t=-49.4C h=-1.0% p=-1.0hPa 403.610 MHz Type=DFM17 ser=22041554 Radiosonde
KE0YJJD220415542022-12-06 23:37:3844.8967-93.0863841418620Clb=4.0m/s t=-49.4C h=-1.0% p=-1.0hPa 403.610 MHz Type=DFM17 ser=22041554 Radiosonde
kc9nikD220415542022-12-06 23:36:5744.895-93.1012781438489Clb=5.6m/s t=-48.7C h=-1.0% p=-1.0hPa 403.610 MHz Type=DFM17 ser=22041554 Radiosonde
KE0YJJD220415542022-12-06 23:36:4944.8949-93.1021771418480Clb=5.2m/s t=-48.7C h=-1.0% p=-1.0hPa 403.610 MHz Type=DFM17 ser=22041554 Radiosonde
kc9nikD220415542022-12-06 23:36:1244.8933-93.1161791398361Clb=3.7m/s t=-48.3C h=-1.0% p=-1.0hPa 403.610 MHz Type=DFM17 ser=22041554 Radiosonde
KE0YJJD220415542022-12-06 23:36:0644.8932-93.1176821468348Clb=4.3m/s t=-48.3C h=-1.0% p=-1.0hPa 403.610 MHz Type=DFM17 ser=22041554 Radiosonde
kc9nikD220415542022-12-06 23:35:3944.8918-93.1311821488243Clb=4.3m/s t=-47.9C h=-1.0% p=-1.0hPa 403.610 MHz Type=DFM17 ser=22041554 Radiosonde
KE0YJJD220415542022-12-06 23:35:3444.8915-93.1336801448222Clb=5.0m/s t=-48.0C h=-1.0% p=-1.0hPa 403.610 MHz Type=DFM17 ser=22041554 Radiosonde
kc9nikD220415542022-12-06 23:35:0844.8898-93.1471791398109Clb=4.3m/s t=-47.3C h=-1.0% p=-1.0hPa 403.610 MHz Type=DFM17 ser=22041554 Radiosonde
KE0YJJD220415542022-12-06 23:35:0344.8894-93.1495801318086Clb=3.7m/s t=-47.2C h=-1.0% p=-1.0hPa 403.610 MHz Type=DFM17 ser=22041554 Radiosonde
kc9nikD220415542022-12-06 23:34:3744.8877-93.1621811337980Clb=4.7m/s t=-46.3C h=-1.0% p=-1.0hPa 403.610 MHz Type=DFM17 ser=22041554 Radiosonde
KE0YJJD220415542022-12-06 23:34:3244.8875-93.1641751317962Clb=3.8m/s t=-46.1C h=-1.0% p=-1.0hPa 403.610 MHz Type=DFM17 ser=22041554 Radiosonde
kc9nikD220415542022-12-06 23:34:0644.8856-93.1775781047818Clb=5.3m/s t=-45.3C h=-1.0% p=-1.0hPa 403.610 MHz Type=DFM17 ser=22041554 Radiosonde
KE0YJJD220415542022-12-06 23:34:0144.8855-93.1783891267807Clb=5.8m/s t=-45.2C h=-1.0% p=-1.0hPa 403.610 MHz Type=DFM17 ser=22041554 Radiosonde
kc9nikD220415542022-12-06 23:33:4944.8839-93.1904781287650Clb=5.4m/s t=-44.1C h=-1.0% p=-1.0hPa 403.610 MHz Type=DFM17 ser=22041554 Radiosonde
kc9nikD220415542022-12-06 23:33:2644.8823-93.2028811267500Clb=6.6m/s t=-42.8C h=-1.0% p=-1.0hPa 403.610 MHz Type=DFM17 ser=22041554 Radiosonde
KE0YJJD220415542022-12-06 23:33:1944.882-93.2049791137473Clb=5.9m/s t=-42.6C h=-1.0% p=-1.0hPa 403.610 MHz Type=DFM17 ser=22041554 Radiosonde
kc9nikD220415542022-12-06 23:32:4444.8805-93.2166901117348Clb=3.4m/s t=-41.5C h=-1.0% p=-1.0hPa 403.610 MHz Type=DFM17 ser=22041554 Radiosonde
KE0YJJD220415542022-12-06 23:32:3744.8804-93.2181701247330Clb=6.3m/s t=-41.4C h=-1.0% p=-1.0hPa 403.610 MHz Type=DFM17 ser=22041554 Radiosonde
kc9nikD220415542022-12-06 23:32:0244.8788-93.2299751397175Clb=5.6m/s t=-40.0C h=-1.0% p=-1.0hPa 403.610 MHz Type=DFM17 ser=22041554 Radiosonde
KE0YJJD220415542022-12-06 23:31:5744.8787-93.2309861337165Clb=5.1m/s t=-40.0C h=-1.0% p=-1.0hPa 403.610 MHz Type=DFM17 ser=22041554 Radiosonde
kc9nikD220415542022-12-06 23:31:3144.8771-93.2432801116993Clb=8.6m/s t=-38.8C h=-1.0% p=-1.0hPa 403.610 MHz Type=DFM17 ser=22041554 Radiosonde
KE0YJJD220415542022-12-06 23:31:2644.877-93.243677946985Clb=7.2m/s t=-38.8C h=-1.0% p=-1.0hPa 403.610 MHz Type=DFM17 ser=22041554 Radiosonde
kc9nikD220415542022-12-06 23:30:5944.8753-93.2545741196843Clb=3.6m/s t=-37.7C h=-1.0% p=-1.0hPa 403.610 MHz Type=DFM17 ser=22041554 Radiosonde
KE0YJJD220415542022-12-06 23:30:5544.875-93.2568691286822Clb=5.0m/s t=-37.5C h=-1.0% p=-1.0hPa 403.610 MHz Type=DFM17 ser=22041554 Radiosonde
kc9nikD220415542022-12-06 23:30:2844.873-93.267377986683Clb=5.4m/s t=-36.3C h=-1.0% p=-1.0hPa 403.610 MHz Type=DFM17 ser=22041554 Radiosonde
KE0YJJD220415542022-12-06 23:30:2344.8725-93.2696801316649Clb=5.3m/s t=-36.0C h=-1.0% p=-1.0hPa 403.610 MHz Type=DFM17 ser=22041554 Radiosonde
kc9nikD220415542022-12-06 23:29:5744.871-93.2804881156509Clb=4.6m/s t=-34.9C h=-1.0% p=-1.0hPa 403.610 MHz Type=DFM17 ser=22041554 Radiosonde
KE0YJJD220415542022-12-06 23:29:5344.8707-93.2822701396482Clb=5.6m/s t=-34.7C h=-1.0% p=-1.0hPa 403.610 MHz Type=DFM17 ser=22041554 Radiosonde
kc9nikD220415542022-12-06 23:29:2644.8692-93.293751046328Clb=3.5m/s t=-33.8C h=-1.0% p=-1.0hPa 403.610 MHz Type=DFM17 ser=22041554 Radiosonde
KE0YJJD220415542022-12-06 23:29:2444.869-93.2952721246298Clb=6.2m/s t=-33.7C h=-1.0% p=-1.0hPa 403.610 MHz Type=DFM17 ser=22041554 Radiosonde
kc9nikD220415542022-12-06 23:29:0544.8678-93.3059891116149Clb=6.0m/s t=-32.7C h=-1.0% p=-1.0hPa 403.610 MHz Type=DFM17 ser=22041554 Radiosonde
KE0YJJD220415542022-12-06 23:29:0044.8677-93.3083771356118Clb=5.2m/s t=-32.4C h=-1.0% p=-1.0hPa 403.610 MHz Type=DFM17 ser=22041554 Radiosonde
kc9nikD220415542022-12-06 23:28:2844.8667-93.3196891045970Clb=5.7m/s t=-31.0C h=-1.0% p=-1.0hPa 403.610 MHz Type=DFM17 ser=22041554 Radiosonde
KE0YJJD220415542022-12-06 23:28:2244.8664-93.3217801465940Clb=6.0m/s t=-30.8C h=-1.0% p=-1.0hPa 403.610 MHz Type=DFM17 ser=22041554 Radiosonde
kc9nikD220415542022-12-06 23:27:5344.8658-93.33378985779Clb=5.6m/s t=-29.7C h=-1.0% p=-1.0hPa 403.610 MHz Type=DFM17 ser=22041554 Radiosonde
KE0YJJD220415542022-12-06 23:27:4844.8655-93.3352791375751Clb=4.5m/s t=-29.5C h=-1.0% p=-1.0hPa 403.610 MHz Type=DFM17 ser=22041554 Radiosonde
kc9nikD220415542022-12-06 23:27:2244.8645-93.3464751135592Clb=6.5m/s t=-28.5C h=-1.0% p=-1.0hPa 403.610 MHz Type=DFM17 ser=22041554 Radiosonde
KE0YJJD220415542022-12-06 23:27:1744.8644-93.3479881225568Clb=5.9m/s t=-28.4C h=-1.0% p=-1.0hPa 403.610 MHz Type=DFM17 ser=22041554 Radiosonde
kc9nikD220415542022-12-06 23:26:5144.8632-93.3583831135421Clb=5.1m/s t=-28.0C h=-1.0% p=-1.0hPa 403.610 MHz Type=DFM17 ser=22041554 Radiosonde
KE0YJJD220415542022-12-06 23:26:4644.8629-93.3603911065389Clb=6.2m/s t=-27.7C h=-1.0% p=-1.0hPa 403.610 MHz Type=DFM17 ser=22041554 Radiosonde
kc9nikD220415542022-12-06 23:26:2044.8615-93.3708711095218Clb=6.2m/s t=-26.9C h=-1.0% p=-1.0hPa 403.610 MHz Type=DFM17 ser=22041554 Radiosonde
KE0YJJD220415542022-12-06 23:26:1544.8613-93.3722851075192Clb=5.2m/s t=-26.8C h=-1.0% p=-1.0hPa 403.610 MHz Type=DFM17 ser=22041554 Radiosonde
kc9nikD220415542022-12-06 23:25:4944.8594-93.3821661155030Clb=4.8m/s t=-25.7C h=-1.0% p=-1.0hPa 403.610 MHz Type=DFM17 ser=22041554 Radiosonde
KE0YJJD220415542022-12-06 23:25:4444.859-93.383381985007Clb=5.4m/s t=-25.5C h=-1.0% p=-1.0hPa 403.610 MHz Type=DFM17 ser=22041554 Radiosonde
kc9nikD220415542022-12-06 23:25:1844.8573-93.3927861094862Clb=6.2m/s t=-24.7C h=-1.0% p=-1.0hPa 403.610 MHz Type=DFM17 ser=22041554 Radiosonde
KE0YJJD220415542022-12-06 23:25:1444.8569-93.394564914833Clb=4.9m/s t=-24.4C h=-1.0% p=-1.0hPa 403.610 MHz Type=DFM17 ser=22041554 Radiosonde
kc9nikD220415542022-12-06 23:24:5444.855-93.404681224684Clb=6.7m/s t=-23.0C h=-1.0% p=-1.0hPa 403.610 MHz Type=DFM17 ser=22041554 Radiosonde
kc9nikD220415542022-12-06 23:24:1844.8525-93.414870874510Clb=5.8m/s t=-21.7C h=-1.0% p=-1.0hPa 403.610 MHz Type=DFM17 ser=22041554 Radiosonde
KE0YJJD220415542022-12-06 23:21:0544.8467-93.47796813333Clb=5.8m/s t=-15.7C h=-1.0% p=-1.0hPa 403.610 MHz Type=DFM17 ser=22041554 Radiosonde
KE0YJJD220415542022-12-06 23:20:3544.8465-93.484888743172Clb=6.8m/s t=-14.3C h=-1.0% p=-1.0hPa 403.610 MHz Type=DFM17 ser=22041554 Radiosonde
KE0YJJD220415542022-12-06 23:20:0344.8463-93.4933101802991Clb=4.8m/s t=-12.6C h=-1.0% p=-1.0hPa 403.610 MHz Type=DFM17 ser=22041554 Radiosonde
KE0YJJD220415542022-12-06 23:19:3144.8462-93.501895942805Clb=5.1m/s t=-11.4C h=-1.0% p=-1.0hPa 403.610 MHz Type=DFM17 ser=22041554 Radiosonde
KE0YJJD220415542022-12-06 23:19:0044.8469-93.510499762633Clb=4.7m/s t=-10.2C h=-1.0% p=-1.0hPa 403.610 MHz Type=DFM17 ser=22041554 Radiosonde
KE0YJJD220415542022-12-06 23:18:2944.8479-93.518391832455Clb=6.9m/s t=-10.2C h=-1.0% p=-1.0hPa 403.610 MHz Type=DFM17 ser=22041554 Radiosonde
KE0YJJD220415542022-12-06 23:17:5844.8488-93.5247108392260Clb=6.0m/s t=-8.5C h=-1.0% p=-1.0hPa 403.610 MHz Type=DFM17 ser=22041554 Radiosonde
KE0YJJD220415542022-12-06 23:17:2744.849-93.530688612075Clb=7.0m/s t=-6.9C h=-1.0% p=-1.0hPa 403.610 MHz Type=DFM17 ser=22041554 Radiosonde
KE0YJJD220415542022-12-06 23:16:5644.8488-93.5362104441886Clb=6.7m/s t=-5.3C h=-1.0% p=-1.0hPa 403.610 MHz Type=DFM17 ser=22041554 Radiosonde
KE0YJJD220415542022-12-06 23:16:2544.8489-93.541379501707Clb=5.4m/s t=-3.6C h=-1.0% p=-1.0hPa 403.610 MHz Type=DFM17 ser=22041554 Radiosonde
KE0YJJD220415542022-12-06 23:15:5444.8491-93.546784631527Clb=4.9m/s t=-2.6C h=-1.0% p=-1.0hPa 403.610 MHz Type=DFM17 ser=22041554 Radiosonde
KE0YJJD220415542022-12-06 23:15:2344.8495-93.552126351352Clb=4.4m/s t=-3.9C h=-1.0% p=-1.0hPa 403.610 MHz Type=DFM17 ser=22041554 Radiosonde
KE0YJJD220415542022-12-06 23:14:5444.8498-93.555655371181Clb=7.3m/s t=-5.0C h=-1.0% p=-1.0hPa 403.610 MHz Type=DFM17 ser=22041554 Radiosonde